KCKN

Crookston Municipal Kirkwood Field Airport

Crookston, Minnesota, USA
METAR KCKN 241955Z AUTO 18010KT 10SM CLR M11/M14 A2991 RMK AO2
Observed Flight Rules
Feb-24 @ 19:55 UTC (21 minutes ago) Visual Flight Rules
Wind Visibility Clouds
180° at 10 knots 10 miles
  • Clear skies
Temperatures Readings
Current -11°C / 12°F
Dewpoint -14°C / 7°F
Humidity 79%
Altimeter 29.91" Hg
Pressure 1013 hPa
Elevation 273
METAR KCKN 241955Z AUTO 18010KT 10SM CLR M11/M14 A2991 RMK AO2
Observed Flight Rules
Feb-24 @ 19:55 UTC
(21 minutes ago)
VFR
Wind Visibility
180° at 10 knots 10 miles
Clouds
  • Clear skies
Temperature Dewpoint
-11°C / 12°F -14°C / 7°F
Humidity Altimeter Pressure
79% 29.91" Hg 1013 hPa